createdAt,value
2019-01-19T00:00:24.314Z,-3.52
2019-01-19T00:04:05.837Z,-3.50
2019-01-19T00:07:11.990Z,-3.56
2019-01-19T00:10:45.477Z,-3.64
2019-01-19T00:14:16.169Z,-3.61
2019-01-19T00:18:06.481Z,-3.50
2019-01-19T00:21:39.094Z,-3.52
2019-01-19T00:25:01.478Z,-3.51
2019-01-19T00:28:06.647Z,-3.50
2019-01-19T00:31:18.891Z,-3.70
2019-01-19T00:34:48.577Z,-3.80
2019-01-19T00:38:15.761Z,-3.96
2019-01-19T00:42:09.761Z,-3.93
2019-01-19T00:45:29.779Z,-3.82
2019-01-19T00:49:03.434Z,-3.71
2019-01-19T00:52:31.472Z,-3.67
2019-01-19T00:55:58.992Z,-3.57
2019-01-19T00:59:02.598Z,-3.42
2019-01-19T01:02:28.201Z,-3.29
2019-01-19T01:05:51.860Z,-3.30
2019-01-19T01:09:22.912Z,-3.24
2019-01-19T01:12:40.776Z,-3.37
2019-01-19T01:16:07.135Z,-3.34
2019-01-19T01:19:25.352Z,-3.43
2019-01-19T01:23:02.400Z,-3.29
2019-01-19T01:26:22.566Z,-3.49
2019-01-19T01:30:08.261Z,-3.28
2019-01-19T01:33:33.967Z,-3.28
2019-01-19T01:36:50.829Z,-3.42
2019-01-19T01:40:11.800Z,-3.49
2019-01-19T01:43:25.860Z,-3.52
2019-01-19T01:46:56.979Z,-3.64
2019-01-19T01:50:05.876Z,-3.46
2019-01-19T01:53:35.673Z,-3.65
2019-01-19T01:56:27.732Z,-3.42
2019-01-19T01:59:48.865Z,-3.27
2019-01-19T02:03:05.419Z,-3.29
2019-01-19T02:06:38.343Z,-3.38
2019-01-19T02:09:39.175Z,-3.40
2019-01-19T02:13:06.543Z,-3.44
2019-01-19T02:16:36.991Z,-3.39
2019-01-19T02:19:57.215Z,-3.52
2019-01-19T02:23:19.515Z,-3.61
2019-01-19T02:27:01.430Z,-3.57
2019-01-19T02:30:17.592Z,-3.54
2019-01-19T02:33:38.405Z,-3.71
2019-01-19T02:37:27.201Z,-3.74
2019-01-19T02:40:34.046Z,-3.72
2019-01-19T02:44:12.660Z,-3.72
2019-01-19T02:47:14.509Z,-3.80
2019-01-19T02:50:32.986Z,-3.90
2019-01-19T02:54:00.423Z,-3.89
2019-01-19T02:57:26.443Z,-3.89
2019-01-19T03:00:27.385Z,-3.87
2019-01-19T03:03:33.461Z,-3.91
2019-01-19T03:06:58.459Z,-3.89
2019-01-19T03:10:17.835Z,-3.95
2019-01-19T03:13:25.127Z,-3.82
2019-01-19T03:17:04.555Z,-3.97
2019-01-19T03:20:39.397Z,-3.87
2019-01-19T03:24:06.981Z,-3.98
2019-01-19T03:27:26.248Z,-3.94
2019-01-19T03:31:05.669Z,-4.06
2019-01-19T03:34:33.142Z,-3.99
2019-01-19T03:37:51.291Z,-3.96
2019-01-19T03:41:29.367Z,-4.07
2019-01-19T03:44:42.833Z,-4.00
2019-01-19T03:47:59.658Z,-4.06
2019-01-19T03:51:35.647Z,-4.05
2019-01-19T03:54:39.902Z,-4.04
2019-01-19T03:58:12.634Z,-4.09
2019-01-19T04:01:16.604Z,-4.26
2019-01-19T04:04:24.300Z,-4.54
2019-01-19T04:07:30.292Z,-4.48
2019-01-19T04:10:35.625Z,-4.53
2019-01-19T04:13:47.010Z,-4.40
2019-01-19T04:17:12.438Z,-4.37
2019-01-19T04:20:33.668Z,-4.37
2019-01-19T04:23:22.781Z,-4.26
2019-01-19T04:26:23.465Z,-4.30
2019-01-19T04:29:12.714Z,-4.48
2019-01-19T04:32:01.675Z,-4.53
2019-01-19T04:34:50.737Z,-4.63
2019-01-19T04:37:40.427Z,-4.80
2019-01-19T04:40:29.951Z,-4.87
2019-01-19T04:43:19.256Z,-4.66
2019-01-19T04:46:08.083Z,-4.66
2019-01-19T04:48:56.816Z,-4.68
2019-01-19T04:51:47.922Z,-4.68
2019-01-19T04:54:36.964Z,-4.84
2019-01-19T04:57:25.278Z,-5.08
2019-01-19T05:00:17.942Z,-5.01
2019-01-19T05:03:06.858Z,-4.93
2019-01-19T05:05:55.731Z,-4.89
2019-01-19T05:08:44.243Z,-4.91
2019-01-19T05:11:33.061Z,-4.99
2019-01-19T05:14:21.803Z,-5.16
2019-01-19T05:17:10.514Z,-5.13
2019-01-19T05:20:00.013Z,-5.15
2019-01-19T05:22:48.777Z,-5.20
2019-01-19T05:25:37.447Z,-5.21
2019-01-19T05:28:31.755Z,-5.25
2019-01-19T05:31:20.475Z,-5.29
2019-01-19T05:34:09.851Z,-5.26
2019-01-19T05:36:58.864Z,-5.33
2019-01-19T05:39:48.207Z,-5.37
2019-01-19T05:42:37.390Z,-5.28
2019-01-19T05:45:25.624Z,-5.35
2019-01-19T05:48:14.686Z,-5.42
2019-01-19T05:51:03.776Z,-5.52
2019-01-19T05:53:53.250Z,-5.52
2019-01-19T05:56:42.131Z,-5.59
2019-01-19T05:59:30.363Z,-5.60
2019-01-19T06:02:20.573Z,-5.53
2019-01-19T06:05:09.786Z,-5.58
2019-01-19T06:07:58.280Z,-5.47
2019-01-19T06:10:46.971Z,-5.33
2019-01-19T06:13:35.548Z,-5.29
2019-01-19T06:16:25.553Z,-5.39
2019-01-19T06:19:15.662Z,-5.32
2019-01-19T06:22:05.043Z,-5.26
2019-01-19T06:24:53.892Z,-5.00
2019-01-19T06:27:42.064Z,-4.96
2019-01-19T06:30:31.387Z,-4.97
2019-01-19T06:33:20.525Z,-4.79
2019-01-19T06:36:09.630Z,-4.79
2019-01-19T06:38:59.458Z,-4.75
2019-01-19T06:41:51.845Z,-4.64
2019-01-19T06:44:40.790Z,-4.68
2019-01-19T06:47:29.561Z,-4.68
2019-01-19T06:50:20.316Z,-4.63
2019-01-19T06:53:09.139Z,-4.67
2019-01-19T06:55:57.484Z,-5.08
2019-01-19T06:58:46.745Z,-4.96
2019-01-19T07:01:36.100Z,-4.91
2019-01-19T07:04:25.305Z,-4.73
2019-01-19T07:07:14.333Z,-4.88
2019-01-19T07:10:03.324Z,-4.75
2019-01-19T07:12:52.217Z,-4.59
2019-01-19T07:15:40.847Z,-4.61
2019-01-19T07:18:29.481Z,-4.56
2019-01-19T07:21:17.834Z,-4.50
2019-01-19T07:24:06.462Z,-4.46
2019-01-19T07:26:54.929Z,-4.88
2019-01-19T07:29:44.746Z,-4.69
2019-01-19T07:32:33.714Z,-4.61
2019-01-19T07:35:24.844Z,-4.57
2019-01-19T07:38:14.447Z,-4.60
2019-01-19T07:41:02.957Z,-4.65
2019-01-19T07:43:52.750Z,-4.76
2019-01-19T07:46:42.055Z,-4.77
2019-01-19T07:49:31.376Z,-4.62
2019-01-19T07:52:20.027Z,-4.61
2019-01-19T07:55:10.810Z,-4.67
2019-01-19T07:57:59.458Z,-4.52
2019-01-19T08:00:48.930Z,-4.53
2019-01-19T08:03:42.239Z,-4.57
2019-01-19T08:06:31.606Z,-4.34
2019-01-19T08:09:20.295Z,-4.27
2019-01-19T08:12:09.573Z,-4.10
2019-01-19T08:14:58.228Z,-3.95
2019-01-19T08:17:47.146Z,-3.84
2019-01-19T08:20:35.843Z,-3.86
2019-01-19T08:23:24.371Z,-3.96
2019-01-19T08:26:13.496Z,-3.84
2019-01-19T08:29:02.813Z,-3.94
2019-01-19T08:31:51.330Z,-4.06
2019-01-19T08:34:41.143Z,-3.97
2019-01-19T08:37:30.014Z,-3.98
2019-01-19T08:40:21.271Z,-3.97
2019-01-19T08:43:30.150Z,-3.84
2019-01-19T08:46:18.198Z,-3.95
2019-01-19T08:49:08.218Z,-3.85
2019-01-19T08:51:57.037Z,-3.69
2019-01-19T08:54:45.735Z,-3.38
2019-01-19T08:57:34.394Z,-3.46
2019-01-19T09:00:23.187Z,-3.65
2019-01-19T09:03:11.907Z,-3.57
2019-01-19T09:06:20.452Z,-3.48
2019-01-19T09:09:09.876Z,-3.38
2019-01-19T09:12:02.417Z,-3.19
2019-01-19T09:14:51.646Z,-2.94
2019-01-19T09:18:00.565Z,-2.68
2019-01-19T09:20:54.693Z,-2.67
2019-01-19T09:23:49.853Z,-2.47
2019-01-19T09:26:41.407Z,-2.81
2019-01-19T09:29:29.925Z,-2.94
2019-01-19T09:32:18.796Z,-3.14
2019-01-19T09:35:07.991Z,-2.92
2019-01-19T09:37:56.895Z,-2.73
2019-01-19T09:40:45.524Z,-2.96
2019-01-19T09:43:34.455Z,-2.71
2019-01-19T09:46:22.602Z,-2.74
2019-01-19T09:49:12.154Z,-2.69
2019-01-19T09:52:00.767Z,-2.46
2019-01-19T09:54:50.752Z,-2.34
2019-01-19T09:57:40.044Z,-2.34
2019-01-19T10:00:35.523Z,-2.46
2019-01-19T10:03:18.153Z,-2.37
2019-01-19T10:06:07.523Z,-2.42
2019-01-19T10:08:56.687Z,-2.42
2019-01-19T10:11:46.409Z,-2.57
2019-01-19T10:14:35.591Z,-2.57
2019-01-19T10:17:25.765Z,-2.59
2019-01-19T10:20:18.219Z,-2.71
2019-01-19T10:23:08.292Z,-2.67
2019-01-19T10:26:01.873Z,-2.61
2019-01-19T10:28:50.929Z,-2.31
2019-01-19T10:31:40.138Z,-2.24
2019-01-19T10:34:29.223Z,-2.24
2019-01-19T10:37:17.849Z,-2.24
2019-01-19T10:40:08.116Z,-1.96
2019-01-19T10:42:57.254Z,-1.96
2019-01-19T10:45:45.994Z,-1.97
2019-01-19T10:48:34.689Z,-2.02
2019-01-19T10:51:23.489Z,-1.90
2019-01-19T10:54:13.583Z,-2.11
2019-01-19T10:57:02.961Z,-2.11
2019-01-19T10:59:52.081Z,-2.13
2019-01-19T11:02:40.658Z,-2.08
2019-01-19T11:05:30.331Z,-2.15
2019-01-19T11:08:18.961Z,-2.20
2019-01-19T11:11:07.680Z,-1.93
2019-01-19T11:13:56.703Z,-1.90
2019-01-19T11:16:45.828Z,-1.74
2019-01-19T11:19:34.751Z,-2.04
2019-01-19T11:22:24.331Z,-1.79
2019-01-19T11:25:14.578Z,-1.79
2019-01-19T11:28:03.500Z,-1.54
2019-01-19T11:30:52.625Z,-1.48
2019-01-19T11:33:41.721Z,-1.48
2019-01-19T11:36:34.050Z,-1.48
2019-01-19T11:39:23.883Z,-1.45
2019-01-19T11:42:12.997Z,-1.37
2019-01-19T11:45:02.097Z,-1.42
2019-01-19T11:47:52.421Z,-1.32
2019-01-19T11:50:41.770Z,-1.71
2019-01-19T11:53:31.220Z,-1.71
2019-01-19T11:56:39.130Z,-1.73
2019-01-19T11:59:30.379Z,-1.70
2019-01-19T12:02:19.634Z,-1.51
2019-01-19T12:05:10.912Z,-1.51
2019-01-19T12:08:01.376Z,-1.31
2019-01-19T12:11:12.758Z,-1.18
2019-01-19T12:14:01.504Z,-1.18
2019-01-19T12:17:09.580Z,-1.35
2019-01-19T12:19:59.221Z,-1.18
2019-01-19T12:22:48.979Z,-1.36
2019-01-19T12:25:38.216Z,-1.56
2019-01-19T12:28:30.036Z,-1.21
2019-01-19T12:31:19.974Z,-1.36
2019-01-19T12:34:08.427Z,-1.21
2019-01-19T12:36:57.475Z,-1.21
2019-01-19T12:39:46.428Z,-1.15
2019-01-19T12:42:34.980Z,-1.15
2019-01-19T12:45:29.269Z,-0.78
2019-01-19T12:48:18.433Z,-0.73
2019-01-19T12:51:09.901Z,-0.73
2019-01-19T12:53:58.832Z,-0.49
2019-01-19T12:56:47.665Z,-0.31
2019-01-19T12:59:37.229Z,-0.36
2019-01-19T13:02:26.310Z,-0.10
2019-01-19T13:05:21.006Z,-0.10
2019-01-19T13:08:12.115Z,-0.22
2019-01-19T13:11:24.901Z,-0.22
2019-01-19T13:14:13.441Z,-0.05
2019-01-19T13:17:55.044Z,-0.22
2019-01-19T13:21:30.244Z,-0.27
2019-01-19T13:24:30.527Z,-0.25
2019-01-19T13:27:43.407Z,0.07
2019-01-19T13:30:54.557Z,0.08
2019-01-19T13:34:38.181Z,0.08
2019-01-19T13:38:10.791Z,0.28
2019-01-19T13:41:36.457Z,0.28
2019-01-19T13:44:59.805Z,0.10
2019-01-19T13:48:07.631Z,-0.30
2019-01-19T13:51:19.530Z,0.10
2019-01-19T13:54:20.939Z,-0.04
2019-01-19T13:57:36.568Z,-0.04
2019-01-19T14:00:51.342Z,-0.04
2019-01-19T14:04:08.931Z,0.12
2019-01-19T14:07:46.433Z,0.11
2019-01-19T14:11:21.903Z,0.11
2019-01-19T14:14:31.814Z,-0.51
2019-01-19T14:17:51.157Z,-0.88
2019-01-19T14:21:13.160Z,-0.89
2019-01-19T14:24:34.329Z,-0.89
2019-01-19T14:28:00.676Z,-0.61
2019-01-19T14:31:48.723Z,-0.58
2019-01-19T14:35:05.066Z,-0.46
2019-01-19T14:38:20.159Z,-0.47
2019-01-19T14:42:02.307Z,-0.47
2019-01-19T14:45:31.712Z,-0.78
2019-01-19T14:48:56.720Z,-0.75
2019-01-19T14:52:35.815Z,-0.88
2019-01-19T14:56:19.851Z,-0.88
2019-01-19T14:59:38.792Z,-1.12
2019-01-19T15:03:04.591Z,-1.12
2019-01-19T15:06:25.871Z,-1.02
2019-01-19T15:09:45.729Z,-1.02
2019-01-19T15:13:15.813Z,-1.02
2019-01-19T15:16:42.067Z,-1.22
2019-01-19T15:20:06.490Z,-1.22
2019-01-19T15:23:35.723Z,-1.36
2019-01-19T15:27:13.482Z,-1.36
2019-01-19T15:30:31.563Z,-1.45
2019-01-19T15:33:46.234Z,-1.41
2019-01-19T15:37:09.171Z,-1.42
2019-01-19T15:40:34.635Z,-1.42
2019-01-19T15:43:51.482Z,-1.42
2019-01-19T15:47:05.622Z,-1.58
2019-01-19T15:50:38.089Z,-1.58
2019-01-19T15:54:16.578Z,-1.54
2019-01-19T15:57:36.074Z,-1.68
2019-01-19T16:01:16.056Z,-1.68
2019-01-19T16:04:32.980Z,-1.84
2019-01-19T16:08:00.185Z,-1.86
2019-01-19T16:11:28.923Z,-2.05
2019-01-19T16:14:47.728Z,-2.13
2019-01-19T16:18:07.680Z,-2.13
2019-01-19T16:21:24.908Z,-2.41
2019-01-19T16:24:30.028Z,-2.42
2019-01-19T16:27:47.745Z,-2.55
2019-01-19T16:31:16.023Z,-2.55
2019-01-19T16:34:41.696Z,-2.31
2019-01-19T16:37:59.862Z,-2.24
2019-01-19T16:41:18.992Z,-2.48
2019-01-19T16:44:38.456Z,-2.26
2019-01-19T16:47:57.061Z,-2.36
2019-01-19T16:51:37.376Z,-2.36
2019-01-19T16:55:01.072Z,-2.29
2019-01-19T16:58:48.266Z,-2.49
2019-01-19T17:02:16.495Z,-2.46
2019-01-19T17:05:18.744Z,-2.44
2019-01-19T17:08:32.302Z,-2.61
2019-01-19T17:11:46.064Z,-2.65
2019-01-19T17:15:07.425Z,-2.71
2019-01-19T17:18:21.575Z,-2.81
2019-01-19T17:21:55.213Z,-2.72
2019-01-19T17:25:20.711Z,-2.71
2019-01-19T17:28:35.194Z,-2.81
2019-01-19T17:32:23.357Z,-2.80
2019-01-19T17:36:01.648Z,-2.84
2019-01-19T17:39:28.345Z,-2.88
2019-01-19T17:42:43.056Z,-2.93
2019-01-19T17:46:06.324Z,-2.89
2019-01-19T17:49:15.742Z,-2.90
2019-01-19T17:52:52.141Z,-3.05
2019-01-19T17:56:13.920Z,-3.05
2019-01-19T17:59:41.838Z,-3.10
2019-01-19T18:03:39.440Z,-3.14
2019-01-19T18:07:15.265Z,-3.16
2019-01-19T18:10:38.134Z,-3.19
2019-01-19T18:14:01.834Z,-3.22
2019-01-19T18:17:27.169Z,-3.22
2019-01-19T18:20:54.888Z,-3.31
2019-01-19T18:24:25.966Z,-3.35
2019-01-19T18:27:39.078Z,-3.40
2019-01-19T18:31:10.800Z,-3.42
2019-01-19T18:34:21.192Z,-3.41
2019-01-19T18:37:30.744Z,-3.42
2019-01-19T18:41:06.954Z,-3.46
2019-01-19T18:44:36.553Z,-3.47
2019-01-19T18:47:44.125Z,-3.47
2019-01-19T18:51:06.617Z,-3.58
2019-01-19T18:54:32.000Z,-3.55
2019-01-19T18:57:56.254Z,-3.50
2019-01-19T19:01:13.000Z,-3.51
2019-01-19T19:05:03.204Z,-3.58
2019-01-19T19:08:19.623Z,-3.68
2019-01-19T19:11:39.265Z,-3.71
2019-01-19T19:15:19.070Z,-3.79
2019-01-19T19:18:33.274Z,-3.78
2019-01-19T19:21:55.581Z,-3.81
2019-01-19T19:25:31.534Z,-3.80
2019-01-19T19:28:46.698Z,-3.90
2019-01-19T19:32:43.828Z,-3.97
2019-01-19T19:36:13.229Z,-4.01
2019-01-19T19:39:30.885Z,-4.06
2019-01-19T19:43:18.455Z,-4.17
2019-01-19T19:46:48.549Z,-4.19
2019-01-19T19:50:06.860Z,-4.24
2019-01-19T19:52:55.991Z,-4.40
2019-01-19T19:55:43.888Z,-4.33
2019-01-19T19:58:32.586Z,-4.34
2019-01-19T20:01:21.105Z,-4.44
2019-01-19T20:04:09.720Z,-4.42
2019-01-19T20:06:59.355Z,-4.51
2019-01-19T20:09:48.188Z,-4.66
2019-01-19T20:12:37.031Z,-4.59
2019-01-19T20:15:30.265Z,-4.59
2019-01-19T20:18:19.385Z,-4.58
2019-01-19T20:21:08.314Z,-4.70
2019-01-19T20:23:56.969Z,-4.75
2019-01-19T20:26:45.864Z,-4.82
2019-01-19T20:29:35.464Z,-4.80
2019-01-19T20:32:24.781Z,-4.84
2019-01-19T20:35:13.569Z,-4.90
2019-01-19T20:38:01.889Z,-4.96
2019-01-19T20:40:50.800Z,-5.00
2019-01-19T20:43:39.802Z,-5.06
2019-01-19T20:46:35.890Z,-5.06
2019-01-19T20:49:24.782Z,-5.06
2019-01-19T20:52:13.793Z,-5.18
2019-01-19T20:55:02.873Z,-5.14
2019-01-19T20:57:52.862Z,-5.15
2019-01-19T21:00:42.954Z,-5.22
2019-01-19T21:03:31.812Z,-5.29
2019-01-19T21:06:20.696Z,-5.31
2019-01-19T21:09:11.633Z,-5.31
2019-01-19T21:12:00.997Z,-5.36
2019-01-19T21:14:49.636Z,-5.42
2019-01-19T21:17:38.113Z,-5.40
2019-01-19T21:20:26.972Z,-5.42
2019-01-19T21:23:15.583Z,-5.43
2019-01-19T21:26:04.645Z,-5.39
2019-01-19T21:28:53.952Z,-5.42
2019-01-19T21:31:43.977Z,-5.51
2019-01-19T21:34:32.469Z,-5.56
2019-01-19T21:37:20.972Z,-5.63
2019-01-19T21:40:11.515Z,-5.66
2019-01-19T21:43:00.558Z,-5.55
2019-01-19T21:45:48.972Z,-5.52
2019-01-19T21:48:38.412Z,-5.56
2019-01-19T21:51:26.475Z,-5.64
2019-01-19T21:54:14.989Z,-5.61
2019-01-19T21:57:03.146Z,-5.72
2019-01-19T21:59:52.194Z,-5.78
2019-01-19T22:02:41.185Z,-5.73
2019-01-19T22:05:31.557Z,-5.77
2019-01-19T22:08:20.564Z,-5.91
2019-01-19T22:11:09.102Z,-5.92
2019-01-19T22:13:57.297Z,-5.84
2019-01-19T22:16:46.999Z,-5.86
2019-01-19T22:19:35.676Z,-5.86
2019-01-19T22:22:25.561Z,-5.87
2019-01-19T22:25:14.637Z,-5.92
2019-01-19T22:28:02.794Z,-5.91
2019-01-19T22:30:50.991Z,-6.12
2019-01-19T22:33:39.203Z,-6.19
2019-01-19T22:36:27.804Z,-6.16
2019-01-19T22:39:17.154Z,-6.12
2019-01-19T22:42:06.096Z,-6.13
2019-01-19T22:44:54.324Z,-6.23
2019-01-19T22:47:42.692Z,-6.25
2019-01-19T22:50:30.819Z,-6.30
2019-01-19T22:53:19.275Z,-6.32
2019-01-19T22:56:08.685Z,-6.27
2019-01-19T22:58:57.344Z,-6.29
2019-01-19T23:02:09.833Z,-6.32
2019-01-19T23:04:58.307Z,-6.34
2019-01-19T23:07:46.340Z,-6.37
2019-01-19T23:10:34.494Z,-6.39
2019-01-19T23:13:22.577Z,-6.38
2019-01-19T23:16:11.870Z,-6.37
2019-01-19T23:19:00.454Z,-6.43
2019-01-19T23:21:49.663Z,-6.46
2019-01-19T23:24:38.456Z,-6.55
2019-01-19T23:27:28.666Z,-6.57
2019-01-19T23:30:16.947Z,-6.62
2019-01-19T23:33:05.534Z,-6.57
2019-01-19T23:35:54.544Z,-6.63
2019-01-19T23:38:44.148Z,-6.78
2019-01-19T23:41:32.778Z,-6.88
2019-01-19T23:44:21.384Z,-6.98
2019-01-19T23:47:09.642Z,-7.03
2019-01-19T23:49:57.924Z,-7.02
2019-01-19T23:52:47.109Z,-6.95
2019-01-19T23:55:35.939Z,-6.98
2019-01-19T23:58:24.022Z,-7.02
